Time;durP1;ratioP1;P1;durP2;ratioP2;P2;SDS_P1;SDS_P2;PMS_P1;PMS_P2;Temp;Humidity;BMP_temperature;BMP_pressure;BME280_temperature;BME280_humidity;BME280_pressure;Samples;Min_cycle;Max_cycle;Signal;HPM_P1;HPM_P2
2021/12/08 00:01:39;;;;;;;4.37;2.27;;;;;;;;;;5033364;28;20806;-85
2021/12/08 00:04:07;;;;;;;5.30;2.03;;;2.10;99.90;;;;;;5035647;28;20448;-86
2021/12/08 00:06:35;;;;;;;5.63;2.03;;;;;;;;;;5031256;28;20848;-85
2021/12/08 00:09:18;;;;;;;1.70;1.30;;;;;;;;;;5037043;28;20492;-85
2021/12/08 00:14:30;;;;;;;6.80;1.40;;;;;;;;;;5036244;28;20521;-85
2021/12/08 00:16:57;;;;;;;2.80;1.97;;;;;;;;;;5036318;28;20454;-88
2021/12/08 00:19:27;;;;;;;3.50;1.80;;;2.20;99.90;;;;;;5035364;28;20543;-86
2021/12/08 00:21:55;;;;;;;2.70;1.60;;;;;;;;;;5033250;28;20526;-85
2021/12/08 00:24:22;;;;;;;2.80;1.73;;;;;;;;;;5035461;28;20973;-88
2021/12/08 00:26:49;;;;;;;5.40;1.23;;;;;;;;;;5036247;28;20467;-89
2021/12/08 00:29:16;;;;;;;2.50;1.90;;;;;;;;;;5036847;28;20867;-85
2021/12/08 00:31:46;;;;;;;3.37;1.20;;;;;;;;;;5037967;28;20444;-84
2021/12/08 00:34:13;;;;;;;2.00;1.43;;;;;;;;;;5030851;28;21019;-85
2021/12/08 00:36:44;;;;;;;1.80;0.73;;;2.10;99.90;;;;;;5036063;28;20452;-85
2021/12/08 00:39:12;;;;;;;1.07;0.90;;;2.10;99.90;;;;;;5031596;28;20448;-85
2021/12/08 00:41:39;;;;;;;1.47;1.37;;;;;;;;;;5032353;28;20494;-85
2021/12/08 00:44:07;;;;;;;1.90;1.07;;;2.10;99.90;;;;;;5032175;28;20440;-84
2021/12/08 00:46:36;;;;;;;2.90;1.43;;;;;;;;;;5027201;28;20518;-84
2021/12/08 00:49:04;;;;;;;1.17;1.07;;;2.00;99.90;;;;;;5035101;28;20554;-85
2021/12/08 00:51:32;;;;;;;4.10;1.57;;;1.90;99.90;;;;;;5034039;28;20452;-85
2021/12/08 00:54:01;;;;;;;4.53;1.23;;;1.90;99.90;;;;;;5031567;28;20506;-84
2021/12/08 00:56:28;;;;;;;1.33;0.70;;;;;;;;;;5032069;28;20467;-85
2021/12/08 00:58:56;;;;;;;8.20;1.50;;;;;;;;;;5034933;28;20543;-84
2021/12/08 01:01:23;;;;;;;2.00;1.30;;;;;;;;;;5034986;28;20780;-84
2021/12/08 01:03:50;;;;;;;0.67;0.60;;;;;;;;;;5034931;28;20456;-84
2021/12/08 01:06:18;;;;;;;3.77;1.40;;;;;;;;;;5033804;28;21128;-84
2021/12/08 01:08:46;;;;;;;1.53;1.10;;;1.50;99.90;;;;;;5034357;28;20491;-84
2021/12/08 01:11:16;;;;;;;3.43;1.27;;;1.40;99.90;;;;;;5034803;28;20452;-84
2021/12/08 01:13:43;;;;;;;1.33;1.07;;;;;;;;;;5031572;28;20463;-84
2021/12/08 01:16:11;;;;;;;2.20;1.47;;;;;;;;;;5033689;28;20451;-85
2021/12/08 01:18:38;;;;;;;1.97;1.13;;;;;;;;;;5034597;28;20460;-86
2021/12/08 01:21:08;;;;;;;3.20;1.77;;;1.30;99.90;;;;;;5030361;28;20452;-84
2021/12/08 01:23:35;;;;;;;4.27;1.97;;;;;;;;;;5034755;28;20467;-84
2021/12/08 01:26:03;;;;;;;4.10;2.27;;;;;;;;;;5034465;28;20455;-84
2021/12/08 01:28:31;;;;;;;3.90;2.00;;;1.40;99.90;;;;;;5034478;28;20450;-83
2021/12/08 01:31:00;;;;;;;1.93;1.40;;;;;;;;;;5034244;28;20875;-84
2021/12/08 01:33:28;;;;;;;3.40;1.80;;;;;;;;;;5034392;28;20495;-84
2021/12/08 01:35:56;;;;;;;3.53;1.50;;;;;;;;;;5033296;28;20456;-84
2021/12/08 01:38:23;;;;;;;3.50;2.00;;;1.40;99.90;;;;;;5034178;28;20465;-83
2021/12/08 01:40:51;;;;;;;5.90;2.40;;;;;;;;;;5030179;28;20468;-84
2021/12/08 01:43:25;;;;;;;2.60;1.60;;;;;;;;;;5030303;28;20447;-83
2021/12/08 01:46:00;;;;;;;3.50;2.13;;;1.40;99.90;;;;;;5034173;28;20447;-84
2021/12/08 01:48:29;;;;;;;2.00;1.30;;;1.40;99.90;;;;;;5034010;28;20451;-83
2021/12/08 01:51:00;;;;;;;3.40;2.10;;;1.40;99.90;;;;;;5032831;28;20452;-83
2021/12/08 01:53:27;;;;;;;3.70;2.47;;;1.40;99.90;;;;;;5034043;28;20447;-84
2021/12/08 01:55:55;;;;;;;3.47;2.30;;;;;;;;;;5033902;28;20815;-83
2021/12/08 01:58:22;;;;;;;4.27;2.33;;;1.40;99.90;;;;;;5033893;28;20447;-83
2021/12/08 02:00:51;;;;;;;1.03;0.90;;;1.40;99.90;;;;;;5033750;28;20444;-83
2021/12/08 02:03:21;;;;;;;2.03;1.83;;;1.40;99.90;;;;;;5033842;28;20482;-83
2021/12/08 02:05:49;;;;;;;3.47;1.40;;;1.40;99.90;;;;;;5029391;28;20448;-83
2021/12/08 02:08:16;;;;;;;3.30;1.70;;;;;;;;;;5030760;28;20460;-83
2021/12/08 02:10:44;;;;;;;3.60;2.40;;;;;;;;;;5033568;28;20499;-83
2021/12/08 02:13:11;;;;;;;1.67;1.30;;;;;;;;;;5033844;28;20456;-84
2021/12/08 02:15:39;;;;;;;1.83;1.10;;;1.40;99.90;;;;;;5029392;28;20825;-83
2021/12/08 02:18:09;;;;;;;3.87;1.57;;;1.30;99.90;;;;;;5033514;28;20467;-84
2021/12/08 02:20:37;;;;;;;1.83;1.10;;;1.30;99.90;;;;;;5032351;28;20455;-84
2021/12/08 02:23:05;;;;;;;1.93;1.07;;;1.30;99.90;;;;;;5033462;28;20463;-84
2021/12/08 02:25:33;;;;;;;1.83;1.00;;;;;;;;;;5033485;28;20452;-83
2021/12/08 02:28:01;;;;;;;1.07;0.80;;;1.30;99.90;;;;;;5033273;28;20448;-84
2021/12/08 02:30:34;;;;;;;2.43;1.80;;;;;;;;;;5033241;28;20496;-84
2021/12/08 02:47:06;;;;;;;4.10;1.70;;;;;;;;;;5033391;28;20803;-83
2021/12/08 02:49:33;;;;;;;1.80;1.40;;;1.40;99.90;;;;;;5031810;28;20594;-85
2021/12/08 02:52:01;;;;;;;1.57;1.23;;;1.40;99.90;;;;;;5033109;28;20448;-84
2021/12/08 02:54:34;;;;;;;2.17;1.40;;;1.40;99.90;;;;;;5033067;28;20466;-84
2021/12/08 02:57:01;;;;;;;2.80;1.33;;;1.50;99.90;;;;;;5033195;28;20455;-84
2021/12/08 02:59:28;;;;;;;3.20;1.90;;;;;;;;;;5033156;28;20473;-84
2021/12/08 03:01:55;;;;;;;5.20;2.03;;;;;;;;;;5032942;28;20532;-84
2021/12/08 03:04:22;;;;;;;2.50;2.20;;;;;;;;;;5032245;28;20940;-84
2021/12/08 03:06:50;;;;;;;3.30;1.70;;;;;;;;;;5032834;28;20443;-86
2021/12/08 03:09:17;;;;;;;1.63;1.20;;;;;;;;;;5033040;28;20491;-85
2021/12/08 03:11:47;;;;;;;1.63;1.40;;;1.60;99.90;;;;;;5033087;28;20808;-89
2021/12/08 03:14:15;;;;;;;2.00;1.80;;;1.70;99.90;;;;;;5032819;28;20947;-84
2021/12/08 03:16:45;;;;;;;4.77;1.80;;;1.70;99.90;;;;;;5032841;28;20452;-84
2021/12/08 03:19:13;;;;;;;2.23;1.73;;;;;;;;;;5032465;28;20792;-87
2021/12/08 03:21:40;;;;;;;3.97;1.33;;;;;;;;;;5032673;28;20455;-85
2021/12/08 03:24:21;;;;;;;2.30;1.90;;;1.80;99.90;;;;;;5033038;28;20448;-84
2021/12/08 03:26:57;;;;;;;3.43;1.53;;;1.80;99.90;;;;;;5032956;28;20471;-85
2021/12/08 03:29:30;;;;;;;4.90;2.20;;;1.80;99.90;;;;;;5032627;28;20593;-84
2021/12/08 03:32:06;;;;;;;2.07;1.50;;;1.80;99.90;;;;;;5032819;28;20447;-84
2021/12/08 03:34:37;;;;;;;2.70;1.83;;;1.80;99.90;;;;;;5031549;28;20854;-86
2021/12/08 03:37:05;;;;;;;0.50;0.43;;;1.80;99.90;;;;;;5032966;28;21030;-84
2021/12/08 03:39:32;;;;;;;1.57;1.20;;;;;;;;;;5034776;28;20952;-85
2021/12/08 03:42:01;;;;;;;1.60;1.10;;;1.90;99.90;;;;;;5036920;28;21034;-85
2021/12/08 03:44:28;;;;;;;2.30;1.50;;;;;;;;;;5036852;28;20497;-86
2021/12/08 03:46:59;;;;;;;1.17;1.07;;;1.90;99.90;;;;;;5036587;28;20450;-84
2021/12/08 03:49:26;;;;;;;3.33;2.87;;;;;;;;;;5035263;28;20629;-86
2021/12/08 03:51:54;;;;;;;1.87;1.30;;;1.90;99.90;;;;;;5033263;28;20462;-87
2021/12/08 03:54:21;;;;;;;2.03;1.83;;;;;;;;;;5036430;28;20456;-86
2021/12/08 03:56:48;;;;;;;7.00;3.00;;;;;;;;;;5036491;28;20452;-91
2021/12/08 03:59:16;;;;;;;3.33;2.23;;;2.00;99.90;;;;;;5036434;28;20448;-85
2021/12/08 04:01:43;;;;;;;5.10;1.37;;;;;;;;;;5036247;28;20460;-84
2021/12/08 04:04:11;;;;;;;4.30;2.63;;;;;;;;;;5036561;28;20821;-86
2021/12/08 04:06:47;;;;;;;5.83;1.07;;;2.10;99.90;;;;;;5035528;28;20534;-84
2021/12/08 04:09:19;;;;;;;1.90;1.33;;;;;;;;;;5036101;28;20795;-83
2021/12/08 04:11:46;;;;;;;1.70;1.37;;;;;;;;;;5036108;28;20448;-84
2021/12/08 04:14:17;;;;;;;5.70;3.53;;;2.30;99.90;;;;;;5035900;28;20439;-85
2021/12/08 04:16:51;;;;;;;7.00;2.90;;;2.40;99.90;;;;;;5035988;28;20443;-85
2021/12/08 04:19:18;;;;;;;0.77;0.70;;;;;;;;;;5034646;28;20961;-86
2021/12/08 04:21:46;;;;;;;3.00;2.70;;;2.50;99.90;;;;;;5035942;28;20440;-86
2021/12/08 04:24:14;;;;;;;1.53;1.23;;;2.40;99.90;;;;;;5035828;28;20452;-85
2021/12/08 04:26:45;;;;;;;5.50;3.33;;;2.50;99.90;;;;;;5035602;28;20448;-85
2021/12/08 04:29:13;;;;;;;4.00;3.20;;;2.50;99.90;;;;;;5035445;28;20471;-85
2021/12/08 04:31:43;;;;;;;6.00;3.33;;;2.40;99.90;;;;;;5032414;28;20470;-84
2021/12/08 04:34:16;;;;;;;2.47;2.27;;;2.40;99.90;;;;;;5035662;28;20487;-85
2021/12/08 04:36:46;;;;;;;5.53;1.93;;;2.40;99.90;;;;;;5035541;28;20458;-84
2021/12/08 04:39:19;;;;;;;2.93;1.73;;;2.40;99.90;;;;;;5035548;28;20498;-85
2021/12/08 04:41:52;;;;;;;2.40;2.10;;;;;;;;;;5035350;28;20931;-84
2021/12/08 04:44:28;;;;;;;2.07;1.83;;;2.40;99.90;;;;;;5035514;28;20454;-84
2021/12/08 04:50:19;;;;;;;4.47;2.67;;;2.40;99.90;;;;;;5028739;28;20479;-84
2021/12/08 04:52:56;;;;;;;4.50;3.40;;;;;;;;;;5035542;28;20456;-84
2021/12/08 05:01:14;;;;;;;3.80;1.83;;;2.60;99.90;;;;;;5035224;28;20537;-85
2021/12/08 05:06:39;;;;;;;3.60;2.77;;;;;;;;;;5034078;28;20447;-85
2021/12/08 05:09:10;;;;;;;1.63;1.53;;;2.60;99.90;;;;;;5035234;28;20802;-85
2021/12/08 05:11:42;;;;;;;5.63;4.50;;;2.70;99.90;;;;;;5035043;28;20495;-87
2021/12/08 05:14:12;;;;;;;4.60;2.90;;;2.70;99.90;;;;;;5035321;28;20459;-86
2021/12/08 05:16:42;;;;;;;3.67;2.47;;;2.70;99.90;;;;;;5034875;28;20452;-84
2021/12/08 05:19:15;;;;;;;3.93;2.53;;;2.70;99.90;;;;;;5034963;28;20440;-84
2021/12/08 05:21:45;;;;;;;3.57;3.00;;;2.80;99.90;;;;;;5034906;28;20455;-84
2021/12/08 05:24:16;;;;;;;4.43;3.53;;;2.90;99.90;;;;;;5034928;28;20455;-83
2021/12/08 05:26:48;;;;;;;5.50;4.00;;;2.90;99.90;;;;;;5031677;28;20451;-84
2021/12/08 05:29:18;;;;;;;2.53;2.03;;;3.00;99.90;;;;;;5034639;28;20480;-84
2021/12/08 05:31:46;;;;;;;5.37;4.53;;;3.00;99.90;;;;;;5034681;28;20495;-85
2021/12/08 05:34:14;;;;;;;6.40;4.27;;;3.10;99.90;;;;;;5034119;28;20458;-84
2021/12/08 05:36:42;;;;;;;5.63;1.83;;;3.10;99.90;;;;;;5020583;28;20452;-85
2021/12/08 05:39:12;;;;;;;3.07;1.70;;;3.10;99.90;;;;;;5022059;28;20440;-85
2021/12/08 05:41:42;;;;;;;6.40;4.70;;;3.20;99.90;;;;;;5022441;28;20815;-83
2021/12/08 05:44:09;;;;;;;6.73;4.50;;;;;;;;;;5024267;28;20448;-84
2021/12/08 05:46:41;;;;;;;6.90;3.47;;;3.30;99.90;;;;;;5021073;28;20951;-89
2021/12/08 05:49:13;;;;;;;7.10;4.77;;;3.30;99.90;;;;;;5022284;28;20441;-85
2021/12/08 05:51:43;;;;;;;6.37;4.90;;;3.30;99.90;;;;;;5021134;28;20501;-83
2021/12/08 05:54:24;;;;;;;6.17;4.53;;;3.30;99.90;;;;;;5022224;28;20453;-85
2021/12/08 05:56:55;;;;;;;5.90;4.77;;;3.30;99.90;;;;;;5025051;28;20448;-86
2021/12/08 05:59:23;;;;;;;6.60;4.60;;;3.30;99.90;;;;;;5025545;28;20441;-85
2021/12/08 06:01:53;;;;;;;2.77;2.03;;;3.20;99.90;;;;;;5019980;28;20538;-84
2021/12/08 06:04:21;;;;;;;10.07;3.80;;;3.20;99.90;;;;;;5022255;28;20451;-83
2021/12/08 06:06:50;;;;;;;3.03;2.30;;;3.20;99.90;;;;;;5017253;28;20452;-84
2021/12/08 06:09:19;;;;;;;4.50;2.20;;;3.20;99.90;;;;;;5015258;28;20472;-86
2021/12/08 06:11:49;;;;;;;1.83;1.63;;;3.20;99.90;;;;;;5012861;28;20496;-92
2021/12/08 06:14:16;;;;;;;4.40;2.50;;;;;;;;;;5012383;28;20448;-93
2021/12/08 06:16:45;;;;;;;5.23;3.80;;;3.10;99.90;;;;;;5011566;28;20433;-91
2021/12/08 06:19:13;;;;;;;3.23;2.70;;;3.10;99.90;;;;;;5016812;28;20456;-92
2021/12/08 06:21:40;;;;;;;1.87;1.30;;;;;;;;;;5011876;28;20775;-92
2021/12/08 06:24:11;;;;;;;6.70;4.60;;;3.10;99.90;;;;;;5015423;28;20448;-92
2021/12/08 06:26:39;;;;;;;3.30;2.10;;;;;;;;;;5012603;28;20622;-91
2021/12/08 06:29:09;;;;;;;4.20;2.70;;;3.20;99.90;;;;;;5017894;28;20481;-87
2021/12/08 06:31:37;;;;;;;7.83;5.27;;;;;;;;;;5017764;28;20898;-88
2021/12/08 06:34:05;;;;;;;5.93;3.03;;;3.20;99.90;;;;;;5010720;28;20441;-89
2021/12/08 06:36:35;;;;;;;5.70;4.93;;;3.20;99.90;;;;;;4980611;28;20452;-94
2021/12/08 06:39:15;;;;;;;10.43;5.60;;;3.20;99.90;;;;;;5015788;28;20905;-89
2021/12/08 06:41:46;;;;;;;8.10;5.70;;;3.20;99.90;;;;;;5015121;28;20449;-91
2021/12/08 06:44:17;;;;;;;6.00;4.30;;;3.20;99.90;;;;;;5015412;28;20437;-89
2021/12/08 06:46:46;;;;;;;6.70;4.30;;;3.70;99.90;;;;;;5016362;28;20476;-84
2021/12/08 06:49:15;;;;;;;5.27;4.13;;;3.20;99.90;;;;;;5022525;28;20449;-85
2021/12/08 06:51:46;;;;;;;5.33;4.17;;;3.20;99.90;;;;;;5015434;28;20496;-91
2021/12/08 06:54:17;;;;;;;6.23;4.00;;;3.20;99.90;;;;;;5015165;28;20781;-90
2021/12/08 06:56:50;;;;;;;5.43;3.97;;;3.20;99.90;;;;;;5011131;28;20459;-86
2021/12/08 06:59:22;;;;;;;4.10;3.43;;;3.20;99.90;;;;;;5014674;28;20467;-89
2021/12/08 07:01:59;;;;;;;6.07;3.80;;;3.20;99.90;;;;;;5014422;28;20468;-92
2021/12/08 07:04:32;;;;;;;13.37;6.63;;;3.20;99.90;;;;;;5013425;28;20480;-86
2021/12/08 07:07:08;;;;;;;32.47;17.03;;;3.20;99.90;;;;;;5023847;28;20843;-90
2021/12/08 07:09:40;;;;;;;27.97;16.60;;;3.20;99.90;;;;;;5034637;28;20443;-85
2021/12/08 07:12:21;;;;;;;35.93;22.27;;;3.20;99.90;;;;;;5028934;28;20519;-85
2021/12/08 07:14:50;;;;;;;11.70;8.50;;;3.10;99.90;;;;;;5023731;28;20432;-87
2021/12/08 07:17:21;;;;;;;8.33;6.20;;;3.10;99.90;;;;;;5029182;28;20445;-85
2021/12/08 07:20:02;;;;;;;10.33;7.80;;;3.10;99.90;;;;;;5031735;28;20444;-85
2021/12/08 07:22:32;;;;;;;16.70;13.63;;;3.10;99.90;;;;;;5037289;28;20454;-87
2021/12/08 07:25:01;;;;;;;6.83;6.20;;;3.10;99.90;;;;;;5037379;28;20947;-92
2021/12/08 07:27:32;;;;;;;9.00;7.40;;;3.10;99.90;;;;;;5034773;28;20531;-88
2021/12/08 07:30:05;;;;;;;8.30;5.60;;;3.10;99.90;;;;;;5037829;28;20479;-87
2021/12/08 07:32:41;;;;;;;7.40;5.33;;;3.10;99.90;;;;;;5037831;28;20455;-86
2021/12/08 07:35:11;;;;;;;5.57;4.53;;;3.10;99.90;;;;;;5035804;28;20538;-86
2021/12/08 07:37:39;;;;;;;7.57;5.20;;;;;;;;;;5037039;28;20546;-84
2021/12/08 07:40:11;;;;;;;8.53;4.40;;;3.10;99.90;;;;;;5037164;28;20454;-88
2021/12/08 07:42:44;;;;;;;6.53;4.90;;;3.20;99.90;;;;;;5033892;28;21010;-86
2021/12/08 07:45:14;;;;;;;8.17;5.40;;;3.20;99.90;;;;;;5037202;28;20443;-87
2021/12/08 07:47:42;;;;;;;7.40;5.70;;;;;;;;;;5037164;28;20472;-85
2021/12/08 07:50:15;;;;;;;8.73;6.07;;;3.20;99.90;;;;;;5035815;28;20443;-87
2021/12/08 07:52:45;;;;;;;8.40;6.20;;;3.20;99.90;;;;;;5036484;28;20459;-88
2021/12/08 07:55:15;;;;;;;6.13;5.10;;;3.20;99.90;;;;;;5036957;28;20448;-86
2021/12/08 07:57:44;;;;;;;6.47;4.97;;;3.20;99.90;;;;;;5036962;28;20455;-91
2021/12/08 08:00:15;;;;;;;5.57;4.00;;;3.20;99.90;;;;;;5037020;28;20452;-87
2021/12/08 08:02:44;;;;;;;8.43;4.80;;;3.20;99.90;;;;;;5036651;28;20447;-86
2021/12/08 08:05:12;;;;;;;8.00;5.30;;;3.20;99.90;;;;;;5032772;28;20478;-86
2021/12/08 08:07:41;;;;;;;5.60;4.60;;;;;;;;;;5036811;28;20448;-88
2021/12/08 08:10:13;;;;;;;5.27;4.57;;;3.20;99.90;;;;;;5036839;28;20443;-88
2021/12/08 08:12:41;;;;;;;5.03;3.40;;;;;;;;;;5036387;28;20446;-86
2021/12/08 08:15:15;;;;;;;5.10;3.97;;;3.20;99.90;;;;;;5033947;28;20455;-88
2021/12/08 08:17:45;;;;;;;4.00;3.60;;;;;;;;;;5034537;28;20534;-87
2021/12/08 08:20:16;;;;;;;5.93;3.60;;;3.30;99.90;;;;;;5036038;28;20514;-91
2021/12/08 08:22:43;;;;;;;3.83;3.03;;;;;;;;;;5037225;28;20452;-84
2021/12/08 08:25:14;;;;;;;5.03;4.00;;;3.20;99.90;;;;;;5035875;28;20448;-87
2021/12/08 08:27:41;;;;;;;4.40;3.10;;;;;;;;;;5029474;28;20905;-89
2021/12/08 08:30:17;;;;;;;3.80;2.60;;;3.20;99.90;;;;;;5036021;28;20490;-87
2021/12/08 08:32:47;;;;;;;6.00;4.00;;;;;;;;;;5031979;28;20487;-90
2021/12/08 08:35:19;;;;;;;6.47;4.63;;;3.20;99.90;;;;;;5035088;28;21079;-88
2021/12/08 08:37:49;;;;;;;4.00;3.60;;;3.20;99.90;;;;;;5001434;28;20983;-88
2021/12/08 08:40:24;;;;;;;5.70;4.00;;;3.20;99.90;;;;;;5005336;28;20447;-89
2021/12/08 08:42:53;;;;;;;4.50;3.67;;;3.20;99.90;;;;;;5039731;28;20478;-87
2021/12/08 08:45:26;;;;;;;4.80;3.80;;;3.20;99.90;;;;;;5035406;28;20457;-87
2021/12/08 08:47:58;;;;;;;6.07;5.17;;;3.20;99.90;;;;;;5028001;28;20987;-85
2021/12/08 08:50:30;;;;;;;7.30;6.10;;;3.20;99.90;;;;;;5008600;28;20463;-86
2021/12/08 08:52:59;;;;;;;2.47;2.03;;;3.20;99.90;;;;;;5034059;28;20459;-84
2021/12/08 08:55:30;;;;;;;3.17;2.57;;;3.30;99.90;;;;;;5028258;28;20462;-86
2021/12/08 08:57:58;;;;;;;5.20;4.47;;;3.30;99.90;;;;;;5039468;28;21006;-92
2021/12/08 09:00:32;;;;;;;6.20;3.23;;;3.30;99.90;;;;;;5035108;28;20449;-86
2021/12/08 09:03:02;;;;;;;4.50;4.10;;;3.30;99.90;;;;;;5032738;28;20570;-87
2021/12/08 09:05:34;;;;;;;4.50;2.73;;;3.30;99.90;;;;;;5034856;28;20471;-85
2021/12/08 09:08:04;;;;;;;2.87;2.60;;;3.30;99.90;;;;;;5036062;28;20451;-85
2021/12/08 09:10:36;;;;;;;6.00;3.10;;;3.40;99.90;;;;;;5035993;28;20540;-85
2021/12/08 09:13:07;;;;;;;3.47;2.10;;;3.40;99.90;;;;;;5035958;28;20443;-85
2021/12/08 09:15:39;;;;;;;4.37;2.67;;;3.40;99.90;;;;;;5035797;28;20455;-85
2021/12/08 09:18:09;;;;;;;1.33;1.23;;;3.40;99.90;;;;;;5036380;28;20463;-86
2021/12/08 09:20:42;;;;;;;2.93;2.43;;;3.40;99.90;;;;;;5031213;28;20451;-87
2021/12/08 09:23:15;;;;;;;3.60;3.20;;;3.40;99.90;;;;;;5035865;28;20460;-84
2021/12/08 09:25:46;;;;;;;3.33;2.17;;;3.40;99.90;;;;;;5034520;28;20510;-83
2021/12/08 09:28:16;;;;;;;3.10;2.20;;;3.50;99.90;;;;;;5034563;28;20444;-84
2021/12/08 09:30:48;;;;;;;4.00;3.57;;;3.50;99.90;;;;;;5034538;28;20472;-85
2021/12/08 09:33:23;;;;;;;5.33;2.67;;;3.50;99.90;;;;;;5035377;28;20456;-87
2021/12/08 09:35:53;;;;;;;3.23;2.93;;;3.50;99.90;;;;;;5033961;28;20474;-87
2021/12/08 09:38:23;;;;;;;3.00;2.50;;;3.60;99.90;;;;;;5038626;28;20476;-86
2021/12/08 09:40:57;;;;;;;2.87;2.60;;;3.60;99.90;;;;;;5044686;28;20452;-85
2021/12/08 09:43:29;;;;;;;5.03;3.87;;;3.60;99.90;;;;;;5045618;28;20901;-86
2021/12/08 09:46:00;;;;;;;2.97;2.67;;;3.60;99.90;;;;;;5043622;28;20820;-85
2021/12/08 09:48:29;;;;;;;8.80;3.87;;;;;;;;;;5042072;28;20456;-86
2021/12/08 09:50:58;;;;;;;3.17;2.57;;;3.70;99.90;;;;;;5029909;23;20494;-85
2021/12/08 09:53:26;;;;;;;4.13;2.90;;;3.70;99.90;;;;;;4986374;28;20461;-85
2021/12/08 09:55:55;;;;;;;3.80;2.50;;;3.70;99.90;;;;;;4998569;28;20897;-84
2021/12/08 09:58:22;;;;;;;4.87;2.53;;;;;;;;;;4993318;28;20453;-84
2021/12/08 10:00:53;;;;;;;3.53;2.13;;;3.80;99.90;;;;;;4980274;28;20442;-85
2021/12/08 10:03:21;;;;;;;4.07;2.80;;;3.80;99.90;;;;;;4978692;28;20457;-86
2021/12/08 10:05:48;;;;;;;3.27;2.33;;;3.80;99.90;;;;;;4995942;28;20536;-85
2021/12/08 10:08:16;;;;;;;3.23;2.13;;;;;;;;;;5014932;28;20445;-84
2021/12/08 10:10:44;;;;;;;3.43;2.87;;;3.90;99.90;;;;;;5016689;28;20468;-84
2021/12/08 10:13:13;;;;;;;2.13;1.93;;;3.90;99.90;;;;;;5005816;28;20501;-86
2021/12/08 10:15:41;;;;;;;3.10;2.33;;;;;;;;;;5000228;28;20450;-85
2021/12/08 10:18:08;;;;;;;1.93;1.60;;;;;;;;;;5001734;28;20450;-84
2021/12/08 10:20:40;;;;;;;6.33;2.77;;;4.00;99.90;;;;;;5000032;28;20500;-85
2021/12/08 10:23:14;;;;;;;3.63;2.70;;;4.10;99.90;;;;;;4997085;28;20454;-84
2021/12/08 10:25:46;;;;;;;2.50;2.00;;;4.00;99.90;;;;;;5003785;28;20472;-84
2021/12/08 10:28:17;;;;;;;7.50;2.87;;;4.00;99.90;;;;;;4999508;28;20453;-85
2021/12/08 10:30:49;;;;;;;6.10;3.53;;;4.10;99.90;;;;;;5003471;28;20524;-85
2021/12/08 10:33:46;;;;;;;4.43;2.70;;;4.30;99.90;;;;;;5003989;28;20489;-84
2021/12/08 10:36:35;;;;;;;3.40;2.57;;;4.10;99.90;;;;;;4996909;28;20474;-85
2021/12/08 10:39:06;;;;;;;3.60;3.17;;;4.10;99.90;;;;;;4999744;28;20454;-84
2021/12/08 10:41:48;;;;;;;2.40;2.20;;;4.10;99.90;;;;;;5001449;28;20450;-85
2021/12/08 10:44:17;;;;;;;3.90;3.17;;;3.70;99.90;;;;;;5002717;28;20504;-84
2021/12/08 10:46:44;;;;;;;4.20;3.40;;;;;;;;;;5004487;28;20477;-84
2021/12/08 10:49:20;;;;;;;3.17;2.53;;;4.00;99.90;;;;;;5004102;28;20454;-83
2021/12/08 10:54:37;;;;;;;4.90;2.40;;;4.00;99.90;;;;;;5005711;28;20441;-84
2021/12/08 10:57:21;;;;;;;3.20;2.00;;;4.20;99.90;;;;;;5003300;28;20466;-83
2021/12/08 11:00:04;;;;;;;2.30;2.00;;;4.00;99.90;;;;;;5001468;28;20460;-87
2021/12/08 11:02:40;;;;;;;3.40;2.67;;;4.20;99.90;;;;;;4992140;28;20450;-88
2021/12/08 11:05:28;;;;;;;2.37;1.93;;;4.00;99.90;;;;;;4989865;28;20457;-89
2021/12/08 11:08:02;;;;;;;3.40;2.07;;;4.10;99.90;;;;;;4988993;28;20457;-91
2021/12/08 11:10:37;;;;;;;2.50;2.30;;;4.20;99.90;;;;;;4994082;28;20454;-87
2021/12/08 11:13:04;;;;;;;2.03;1.80;;;;;;;;;;4990634;28;20493;-86
2021/12/08 11:15:32;;;;;;;4.77;3.50;;;;;;;;;;4993553;28;20454;-86
2021/12/08 11:18:12;;;;;;;6.13;3.63;;;4.20;99.90;;;;;;4993766;28;20556;-87
2021/12/08 11:20:46;;;;;;;5.30;4.20;;;4.00;99.90;;;;;;4992795;28;20481;-86
2021/12/08 11:23:18;;;;;;;3.90;3.40;;;4.20;99.90;;;;;;4992938;28;20480;-89
2021/12/08 11:25:50;;;;;;;19.83;11.90;;;4.10;99.90;;;;;;4993929;28;20441;-88
2021/12/08 11:28:30;;;;;;;5.10;3.53;;;3.80;99.90;;;;;;4993391;28;20461;-88
2021/12/08 11:31:06;;;;;;;6.73;3.97;;;4.40;99.90;;;;;;4993240;28;20446;-91
2021/12/08 11:33:33;;;;;;;10.70;6.73;;;;;;;;;;4978648;28;21009;-87
2021/12/08 11:36:16;;;;;;;10.93;5.73;;;4.20;99.90;;;;;;4973107;28;20451;-87
2021/12/08 11:38:46;;;;;;;4.93;3.63;;;4.20;99.90;;;;;;4985895;28;20444;-89
2021/12/08 11:41:34;;;;;;;21.43;11.50;;;4.20;99.90;;;;;;4992974;28;20476;-90
2021/12/08 11:44:04;;;;;;;9.23;5.27;;;4.20;99.90;;;;;;4993987;28;20517;-89
2021/12/08 11:46:38;;;;;;;4.07;3.40;;;4.50;99.90;;;;;;4994173;28;20474;-90
2021/12/08 11:49:07;;;;;;;5.40;3.50;;;4.30;99.90;;;;;;4993659;28;20462;-90
2021/12/08 11:51:48;;;;;;;4.70;3.83;;;4.30;99.90;;;;;;4992579;28;20481;-89
2021/12/08 11:54:26;;;;;;;3.90;3.20;;;4.30;99.90;;;;;;4996365;28;20458;-89
2021/12/08 11:56:53;;;;;;;4.47;3.60;;;4.30;99.90;;;;;;4996912;28;20454;-86
2021/12/08 11:59:20;;;;;;;3.90;3.40;;;;;;;;;;5005434;23;20497;-90
2021/12/08 12:01:49;;;;;;;4.57;3.80;;;;;;;;;;4998433;28;20449;-88
2021/12/08 12:04:16;;;;;;;6.63;3.70;;;;;;;;;;5009690;28;20816;-87
2021/12/08 12:06:43;;;;;;;5.00;4.20;;;;;;;;;;5010859;28;20453;-90
2021/12/08 12:09:10;;;;;;;4.03;3.63;;;;;;;;;;5001608;28;20453;-90
2021/12/08 12:11:39;;;;;;;4.43;4.03;;;4.50;99.90;;;;;;5003484;28;20453;-90
2021/12/08 12:14:06;;;;;;;4.00;3.70;;;;;;;;;;4999863;28;20457;-88
2021/12/08 12:16:37;;;;;;;4.87;4.37;;;4.40;99.90;;;;;;5007130;23;20457;-89
2021/12/08 12:19:05;;;;;;;6.37;5.77;;;4.40;99.90;;;;;;4982163;28;20454;-88
2021/12/08 12:21:38;;;;;;;6.10;4.77;;;4.40;99.90;;;;;;4978957;28;20454;-89
2021/12/08 12:27:32;;;;;;;4.73;4.23;;;4.60;99.90;;;;;;4992541;28;20443;-87
2021/12/08 12:30:09;;;;;;;5.50;4.57;;;4.40;99.90;;;;;;4987145;28;20454;-86
2021/12/08 12:32:44;;;;;;;6.53;5.03;;;4.30;99.90;;;;;;4987413;28;20497;-87
2021/12/08 12:35:14;;;;;;;6.53;5.20;;;4.90;99.90;;;;;;4984403;28;20450;-86
2021/12/08 12:37:42;;;;;;;5.57;4.97;;;;;;;;;;4988039;28;20450;-88
2021/12/08 12:40:12;;;;;;;6.50;5.30;;;4.40;99.90;;;;;;4982046;28;20451;-87
2021/12/08 12:42:56;;;;;;;7.40;6.07;;;3.90;99.90;;;;;;4975357;28;20938;-88
2021/12/08 12:45:25;;;;;;;6.57;5.40;;;4.40;99.90;;;;;;4979096;28;20506;-85
2021/12/08 12:48:27;;;;;;;6.87;5.53;;;4.10;99.90;;;;;;4979497;28;20463;-89
2021/12/08 12:51:03;;;;;;;7.67;5.00;;;4.50;99.90;;;;;;4897514;29;20446;-89
2021/12/08 12:53:39;;;;;;;7.23;5.40;;;4.50;99.90;;;;;;4963768;28;20848;-87
2021/12/08 12:56:08;;;;;;;9.60;6.13;;;4.30;99.90;;;;;;4976531;28;20510;-91
2021/12/08 12:58:48;;;;;;;7.73;5.90;;;4.60;99.90;;;;;;4977325;28;20945;-88
2021/12/08 13:01:17;;;;;;;7.47;5.67;;;4.60;99.90;;;;;;4981101;28;20457;-89
2021/12/08 13:03:50;;;;;;;10.00;6.13;;;4.60;99.90;;;;;;4977091;28;20513;-86
2021/12/08 13:06:33;;;;;;;7.20;6.40;;;4.50;99.90;;;;;;4977808;28;20472;-85
2021/12/08 13:09:00;;;;;;;9.47;6.57;;;;;;;;;;4976011;28;20454;-88
2021/12/08 13:11:57;;;;;;;7.73;5.73;;;4.70;99.90;;;;;;4971103;28;20459;-88
2021/12/08 13:14:29;;;;;;;8.23;6.03;;;4.50;99.90;;;;;;4976993;28;20917;-90
2021/12/08 13:17:18;;;;;;;8.20;6.20;;;4.70;99.90;;;;;;4976975;28;20502;-88
2021/12/08 13:19:47;;;;;;;8.50;6.13;;;4.50;99.90;;;;;;4976749;28;20900;-92
2021/12/08 13:22:51;;;;;;;7.27;5.80;;;4.90;99.90;;;;;;4969998;28;20553;-89
2021/12/08 13:25:44;;;;;;;11.13;6.57;;;4.80;99.90;;;;;;4977989;28;20501;-88
2021/12/08 13:28:19;;;;;;;6.70;5.83;;;4.60;99.90;;;;;;4977082;28;20506;-89
2021/12/08 13:30:51;;;;;;;5.70;5.10;;;4.60;99.90;;;;;;4973658;28;20438;-90
2021/12/08 13:33:32;;;;;;;7.80;5.73;;;4.60;99.90;;;;;;4976422;28;20847;-94
2021/12/08 13:36:18;;;;;;;8.20;6.13;;;4.70;99.90;;;;;;4970853;28;20992;-90
2021/12/08 13:38:45;;;;;;;8.00;5.10;;;;;;;;;;4974649;28;20462;-88
2021/12/08 13:41:15;;;;;;;6.03;5.33;;;5.00;99.90;;;;;;4975648;28;20466;-89
2021/12/08 13:43:44;;;;;;;6.50;5.53;;;4.80;99.90;;;;;;4976704;28;20454;-88
2021/12/08 13:46:42;;;;;;;5.20;4.20;;;4.50;99.90;;;;;;4975963;28;20475;-90
2021/12/08 13:49:18;;;;;;;9.00;4.80;;;4.50;99.90;;;;;;4970948;28;20450;-88
2021/12/08 13:52:01;;;;;;;6.50;4.80;;;4.50;99.90;;;;;;4975899;28;20462;-87
2021/12/08 13:54:30;;;;;;;9.10;5.30;;;4.50;99.90;;;;;;4975605;28;20482;-89
2021/12/08 13:56:59;;;;;;;5.37;4.87;;;4.50;99.90;;;;;;4973877;28;20443;-88
2021/12/08 13:59:56;;;;;;;5.73;5.00;;;4.50;99.90;;;;;;4976002;28;20447;-87
2021/12/08 14:02:27;;;;;;;12.50;6.30;;;4.50;99.90;;;;;;4977978;28;20458;-91
2021/12/08 14:05:03;;;;;;;8.10;5.47;;;4.50;99.90;;;;;;4974583;28;20945;-91
2021/12/08 14:07:30;;;;;;;7.17;5.43;;;;;;;;;;4978081;28;20485;-89
2021/12/08 14:09:58;;;;;;;8.63;5.67;;;4.60;99.90;;;;;;4974479;28;20470;-90
2021/12/08 14:12:26;;;;;;;8.73;7.73;;;;;;;;;;4972391;28;20443;-87
2021/12/08 14:14:57;;;;;;;8.57;6.20;;;4.70;99.90;;;;;;4960861;29;20823;-88
2021/12/08 14:17:30;;;;;;;7.00;6.03;;;4.70;99.90;;;;;;4976552;28;20841;-88
2021/12/08 14:19:57;;;;;;;12.80;6.53;;;;;;;;;;4979384;28;20938;-87